sensor_id;sensor_type;location;lat;lon;timestamp;P1;durP1;ratioP1;P2;durP2;ratioP2
80541;SDS011;69870;51.460;8.842;2023-05-23T00:01:08;75.32;;;48.35;;
80541;SDS011;69870;51.460;8.842;2023-05-23T00:03:34;78.43;;;50.65;;
80541;SDS011;69870;51.460;8.842;2023-05-23T00:06:01;82.55;;;52.30;;
80541;SDS011;69870;51.460;8.842;2023-05-23T00:08:30;66.53;;;43.45;;
80541;SDS011;69870;51.460;8.842;2023-05-23T00:10:56;71.43;;;45.75;;
80541;SDS011;69870;51.460;8.842;2023-05-23T00:13:23;92.25;;;52.22;;
80541;SDS011;69870;51.460;8.842;2023-05-23T00:15:50;81.72;;;48.47;;
80541;SDS011;69870;51.460;8.842;2023-05-23T00:18:17;83.25;;;46.53;;
80541;SDS011;69870;51.460;8.842;2023-05-23T00:20:44;58.60;;;35.42;;
80541;SDS011;69870;51.460;8.842;2023-05-23T00:23:11;65.35;;;39.20;;
80541;SDS011;69870;51.460;8.842;2023-05-23T00:25:44;52.03;;;32.28;;
80541;SDS011;69870;51.460;8.842;2023-05-23T00:28:16;70.28;;;39.53;;
80541;SDS011;69870;51.460;8.842;2023-05-23T00:30:43;53.95;;;35.78;;
80541;SDS011;69870;51.460;8.842;2023-05-23T00:33:10;70.40;;;41.33;;
80541;SDS011;69870;51.460;8.842;2023-05-23T00:35:38;60.58;;;38.20;;
80541;SDS011;69870;51.460;8.842;2023-05-23T00:38:05;57.67;;;37.70;;
80541;SDS011;69870;51.460;8.842;2023-05-23T00:40:32;62.35;;;39.97;;
80541;SDS011;69870;51.460;8.842;2023-05-23T00:43:00;51.10;;;34.60;;
80541;SDS011;69870;51.460;8.842;2023-05-23T00:45:27;55.22;;;34.47;;
80541;SDS011;69870;51.460;8.842;2023-05-23T00:47:53;54.67;;;35.17;;
80541;SDS011;69870;51.460;8.842;2023-05-23T00:50:20;61.85;;;38.67;;
80541;SDS011;69870;51.460;8.842;2023-05-23T00:52:47;49.22;;;32.38;;
80541;SDS011;69870;51.460;8.842;2023-05-23T00:55:14;50.92;;;33.05;;
80541;SDS011;69870;51.460;8.842;2023-05-23T00:57:41;48.17;;;31.58;;
80541;SDS011;69870;51.460;8.842;2023-05-23T01:00:10;44.35;;;32.35;;
80541;SDS011;69870;51.460;8.842;2023-05-23T01:02:41;46.65;;;31.75;;
80541;SDS011;69870;51.460;8.842;2023-05-23T01:05:09;55.45;;;33.95;;
80541;SDS011;69870;51.460;8.842;2023-05-23T01:07:38;50.10;;;31.80;;
80541;SDS011;69870;51.460;8.842;2023-05-23T01:10:06;52.67;;;33.90;;
80541;SDS011;69870;51.460;8.842;2023-05-23T01:12:36;47.92;;;32.22;;
80541;SDS011;69870;51.460;8.842;2023-05-23T01:15:12;54.05;;;34.92;;
80541;SDS011;69870;51.460;8.842;2023-05-23T01:17:43;50.55;;;33.33;;
80541;SDS011;69870;51.460;8.842;2023-05-23T01:20:17;59.25;;;34.25;;
80541;SDS011;69870;51.460;8.842;2023-05-23T01:22:57;45.58;;;31.40;;
80541;SDS011;69870;51.460;8.842;2023-05-23T01:25:32;50.58;;;35.55;;
80541;SDS011;69870;51.460;8.842;2023-05-23T01:28:15;51.75;;;34.60;;
80541;SDS011;69870;51.460;8.842;2023-05-23T01:30:44;43.78;;;29.98;;
80541;SDS011;69870;51.460;8.842;2023-05-23T01:33:12;54.05;;;31.95;;
80541;SDS011;69870;51.460;8.842;2023-05-23T01:35:41;52.03;;;28.17;;
80541;SDS011;69870;51.460;8.842;2023-05-23T01:38:09;51.25;;;28.40;;
80541;SDS011;69870;51.460;8.842;2023-05-23T01:40:35;53.38;;;31.13;;
80541;SDS011;69870;51.460;8.842;2023-05-23T01:43:03;44.50;;;27.85;;
80541;SDS011;69870;51.460;8.842;2023-05-23T01:45:31;53.75;;;29.67;;
80541;SDS011;69870;51.460;8.842;2023-05-23T01:47:58;42.63;;;26.05;;
80541;SDS011;69870;51.460;8.842;2023-05-23T01:50:26;33.83;;;22.30;;
80541;SDS011;69870;51.460;8.842;2023-05-23T01:52:53;41.20;;;26.50;;
80541;SDS011;69870;51.460;8.842;2023-05-23T01:55:20;46.75;;;23.45;;
80541;SDS011;69870;51.460;8.842;2023-05-23T01:57:49;38.28;;;25.48;;
80541;SDS011;69870;51.460;8.842;2023-05-23T02:00:16;39.70;;;23.60;;
80541;SDS011;69870;51.460;8.842;2023-05-23T02:02:47;54.22;;;23.05;;
80541;SDS011;69870;51.460;8.842;2023-05-23T02:05:15;42.38;;;22.02;;
80541;SDS011;69870;51.460;8.842;2023-05-23T02:07:42;42.15;;;23.65;;
80541;SDS011;69870;51.460;8.842;2023-05-23T02:10:08;40.20;;;23.13;;
80541;SDS011;69870;51.460;8.842;2023-05-23T02:12:36;35.22;;;20.63;;
80541;SDS011;69870;51.460;8.842;2023-05-23T02:15:04;31.00;;;20.33;;
80541;SDS011;69870;51.460;8.842;2023-05-23T02:17:31;35.80;;;20.42;;
80541;SDS011;69870;51.460;8.842;2023-05-23T02:19:59;43.15;;;21.60;;
80541;SDS011;69870;51.460;8.842;2023-05-23T02:22:26;35.00;;;21.38;;
80541;SDS011;69870;51.460;8.842;2023-05-23T02:24:53;36.13;;;19.25;;
80541;SDS011;69870;51.460;8.842;2023-05-23T02:27:19;36.95;;;22.48;;
80541;SDS011;69870;51.460;8.842;2023-05-23T02:29:46;33.83;;;20.80;;
80541;SDS011;69870;51.460;8.842;2023-05-23T02:32:12;29.23;;;20.38;;
80541;SDS011;69870;51.460;8.842;2023-05-23T02:34:39;38.60;;;21.27;;
80541;SDS011;69870;51.460;8.842;2023-05-23T02:37:07;33.45;;;18.02;;
80541;SDS011;69870;51.460;8.842;2023-05-23T02:39:35;29.75;;;18.55;;
80541;SDS011;69870;51.460;8.842;2023-05-23T02:42:02;27.95;;;17.83;;
80541;SDS011;69870;51.460;8.842;2023-05-23T02:44:29;30.45;;;19.35;;
80541;SDS011;69870;51.460;8.842;2023-05-23T02:46:56;31.30;;;19.20;;
80541;SDS011;69870;51.460;8.842;2023-05-23T02:49:22;28.23;;;17.73;;
80541;SDS011;69870;51.460;8.842;2023-05-23T02:51:49;28.67;;;18.42;;
80541;SDS011;69870;51.460;8.842;2023-05-23T02:54:17;29.55;;;18.35;;
80541;SDS011;69870;51.460;8.842;2023-05-23T02:56:44;34.40;;;19.23;;
80541;SDS011;69870;51.460;8.842;2023-05-23T02:59:12;28.10;;;18.73;;
80541;SDS011;69870;51.460;8.842;2023-05-23T03:01:39;39.20;;;18.98;;
80541;SDS011;69870;51.460;8.842;2023-05-23T03:04:05;27.17;;;16.65;;
80541;SDS011;69870;51.460;8.842;2023-05-23T03:06:32;24.45;;;17.48;;
80541;SDS011;69870;51.460;8.842;2023-05-23T03:09:00;26.15;;;16.77;;
80541;SDS011;69870;51.460;8.842;2023-05-23T03:11:29;27.05;;;17.00;;
80541;SDS011;69870;51.460;8.842;2023-05-23T03:13:57;29.58;;;18.42;;
80541;SDS011;69870;51.460;8.842;2023-05-23T03:16:24;31.50;;;18.42;;
80541;SDS011;69870;51.460;8.842;2023-05-23T03:18:51;26.83;;;17.30;;
80541;SDS011;69870;51.460;8.842;2023-05-23T03:21:17;27.35;;;18.15;;
80541;SDS011;69870;51.460;8.842;2023-05-23T03:23:44;24.77;;;16.73;;
80541;SDS011;69870;51.460;8.842;2023-05-23T03:26:11;25.40;;;13.98;;
80541;SDS011;69870;51.460;8.842;2023-05-23T03:28:38;22.25;;;15.63;;
80541;SDS011;69870;51.460;8.842;2023-05-23T03:31:05;20.27;;;13.40;;
80541;SDS011;69870;51.460;8.842;2023-05-23T03:33:32;26.40;;;16.15;;
80541;SDS011;69870;51.460;8.842;2023-05-23T03:35:58;29.13;;;16.23;;
80541;SDS011;69870;51.460;8.842;2023-05-23T03:38:25;22.55;;;14.68;;
80541;SDS011;69870;51.460;8.842;2023-05-23T03:40:52;18.38;;;13.13;;
80541;SDS011;69870;51.460;8.842;2023-05-23T03:43:19;22.52;;;14.65;;
80541;SDS011;69870;51.460;8.842;2023-05-23T03:45:48;24.30;;;14.73;;
80541;SDS011;69870;51.460;8.842;2023-05-23T03:48:16;20.23;;;13.38;;
80541;SDS011;69870;51.460;8.842;2023-05-23T03:50:43;20.80;;;14.57;;
80541;SDS011;69870;51.460;8.842;2023-05-23T03:53:10;19.92;;;13.70;;
80541;SDS011;69870;51.460;8.842;2023-05-23T03:55:37;23.08;;;14.88;;
80541;SDS011;69870;51.460;8.842;2023-05-23T03:58:04;22.33;;;14.77;;
80541;SDS011;69870;51.460;8.842;2023-05-23T04:00:31;22.35;;;13.45;;
80541;SDS011;69870;51.460;8.842;2023-05-23T04:03:00;24.60;;;15.32;;
80541;SDS011;69870;51.460;8.842;2023-05-23T04:05:28;23.83;;;14.98;;
80541;SDS011;69870;51.460;8.842;2023-05-23T04:07:55;27.67;;;13.80;;
80541;SDS011;69870;51.460;8.842;2023-05-23T04:10:22;24.85;;;15.18;;
80541;SDS011;69870;51.460;8.842;2023-05-23T04:12:48;27.48;;;15.93;;
80541;SDS011;69870;51.460;8.842;2023-05-23T04:15:16;22.45;;;14.77;;
80541;SDS011;69870;51.460;8.842;2023-05-23T04:20:22;24.48;;;14.00;;
80541;SDS011;69870;51.460;8.842;2023-05-23T04:22:49;21.40;;;13.73;;
80541;SDS011;69870;51.460;8.842;2023-05-23T04:25:16;23.27;;;13.15;;
80541;SDS011;69870;51.460;8.842;2023-05-23T04:27:52;18.98;;;11.30;;
80541;SDS011;69870;51.460;8.842;2023-05-23T04:30:21;21.42;;;12.02;;
80541;SDS011;69870;51.460;8.842;2023-05-23T04:32:48;26.60;;;13.57;;
80541;SDS011;69870;51.460;8.842;2023-05-23T04:35:15;15.93;;;12.00;;
80541;SDS011;69870;51.460;8.842;2023-05-23T04:37:43;23.02;;;12.60;;
80541;SDS011;69870;51.460;8.842;2023-05-23T04:40:11;19.48;;;12.25;;
80541;SDS011;69870;51.460;8.842;2023-05-23T04:42:56;20.77;;;13.57;;
80541;SDS011;69870;51.460;8.842;2023-05-23T04:45:30;23.90;;;13.55;;
80541;SDS011;69870;51.460;8.842;2023-05-23T04:48:14;24.45;;;14.85;;
80541;SDS011;69870;51.460;8.842;2023-05-23T04:50:43;21.67;;;12.73;;
80541;SDS011;69870;51.460;8.842;2023-05-23T04:53:13;18.30;;;12.82;;
80541;SDS011;69870;51.460;8.842;2023-05-23T04:55:39;28.75;;;14.07;;
80541;SDS011;69870;51.460;8.842;2023-05-23T04:58:11;20.70;;;14.38;;
80541;SDS011;69870;51.460;8.842;2023-05-23T05:00:38;26.30;;;15.65;;
80541;SDS011;69870;51.460;8.842;2023-05-23T05:03:05;25.48;;;16.42;;
80541;SDS011;69870;51.460;8.842;2023-05-23T05:05:36;25.73;;;16.65;;
80541;SDS011;69870;51.460;8.842;2023-05-23T05:08:03;29.73;;;17.95;;
80541;SDS011;69870;51.460;8.842;2023-05-23T05:10:31;30.35;;;20.00;;
80541;SDS011;69870;51.460;8.842;2023-05-23T05:12:58;43.33;;;22.92;;
80541;SDS011;69870;51.460;8.842;2023-05-23T05:15:30;36.83;;;19.60;;
80541;SDS011;69870;51.460;8.842;2023-05-23T05:17:57;36.58;;;19.85;;
80541;SDS011;69870;51.460;8.842;2023-05-23T05:20:24;31.23;;;17.77;;
80541;SDS011;69870;51.460;8.842;2023-05-23T05:22:54;32.28;;;19.63;;
80541;SDS011;69870;51.460;8.842;2023-05-23T05:25:20;36.92;;;20.95;;
80541;SDS011;69870;51.460;8.842;2023-05-23T05:27:48;36.08;;;20.63;;
80541;SDS011;69870;51.460;8.842;2023-05-23T05:30:18;45.65;;;24.00;;
80541;SDS011;69870;51.460;8.842;2023-05-23T05:32:49;32.22;;;18.48;;
80541;SDS011;69870;51.460;8.842;2023-05-23T05:35:16;36.95;;;20.77;;
80541;SDS011;69870;51.460;8.842;2023-05-23T05:37:44;29.73;;;18.27;;
80541;SDS011;69870;51.460;8.842;2023-05-23T05:40:11;28.00;;;17.30;;
80541;SDS011;69870;51.460;8.842;2023-05-23T05:42:41;28.08;;;15.70;;
80541;SDS011;69870;51.460;8.842;2023-05-23T05:45:10;24.30;;;15.57;;
80541;SDS011;69870;51.460;8.842;2023-05-23T05:47:38;26.42;;;14.35;;
80541;SDS011;69870;51.460;8.842;2023-05-23T05:50:04;23.58;;;14.05;;
80541;SDS011;69870;51.460;8.842;2023-05-23T05:52:33;24.05;;;15.10;;
80541;SDS011;69870;51.460;8.842;2023-05-23T05:55:03;20.73;;;14.68;;
80541;SDS011;69870;51.460;8.842;2023-05-23T05:57:30;27.88;;;15.05;;
80541;SDS011;69870;51.460;8.842;2023-05-23T05:59:58;24.45;;;14.85;;
80541;SDS011;69870;51.460;8.842;2023-05-23T06:02:34;21.20;;;15.07;;
80541;SDS011;69870;51.460;8.842;2023-05-23T06:05:01;24.83;;;15.63;;
80541;SDS011;69870;51.460;8.842;2023-05-23T06:07:28;26.23;;;17.13;;
80541;SDS011;69870;51.460;8.842;2023-05-23T06:09:54;36.13;;;21.75;;
80541;SDS011;69870;51.460;8.842;2023-05-23T06:12:21;33.05;;;19.17;;
80541;SDS011;69870;51.460;8.842;2023-05-23T06:14:47;33.75;;;20.40;;
80541;SDS011;69870;51.460;8.842;2023-05-23T06:17:15;40.97;;;23.20;;
80541;SDS011;69870;51.460;8.842;2023-05-23T06:19:43;38.80;;;22.63;;
80541;SDS011;69870;51.460;8.842;2023-05-23T06:22:09;38.75;;;23.05;;
80541;SDS011;69870;51.460;8.842;2023-05-23T06:24:36;36.40;;;22.75;;
80541;SDS011;69870;51.460;8.842;2023-05-23T06:27:03;39.47;;;23.60;;
80541;SDS011;69870;51.460;8.842;2023-05-23T06:29:30;47.55;;;25.73;;
80541;SDS011;69870;51.460;8.842;2023-05-23T06:31:56;41.03;;;23.80;;
80541;SDS011;69870;51.460;8.842;2023-05-23T06:34:23;36.05;;;22.55;;
80541;SDS011;69870;51.460;8.842;2023-05-23T06:36:51;39.60;;;23.98;;
80541;SDS011;69870;51.460;8.842;2023-05-23T06:39:19;40.88;;;24.05;;
80541;SDS011;69870;51.460;8.842;2023-05-23T06:41:45;43.05;;;23.15;;
80541;SDS011;69870;51.460;8.842;2023-05-23T06:44:12;39.95;;;22.90;;
80541;SDS011;69870;51.460;8.842;2023-05-23T06:46:41;38.47;;;23.63;;
80541;SDS011;69870;51.460;8.842;2023-05-23T06:49:08;39.85;;;25.77;;
80541;SDS011;69870;51.460;8.842;2023-05-23T06:51:34;44.28;;;23.85;;
80541;SDS011;69870;51.460;8.842;2023-05-23T06:54:02;40.40;;;23.88;;
80541;SDS011;69870;51.460;8.842;2023-05-23T06:56:30;34.03;;;22.23;;
80541;SDS011;69870;51.460;8.842;2023-05-23T06:58:57;29.63;;;17.42;;
80541;SDS011;69870;51.460;8.842;2023-05-23T07:01:25;37.65;;;18.95;;
80541;SDS011;69870;51.460;8.842;2023-05-23T07:03:52;28.85;;;18.02;;
80541;SDS011;69870;51.460;8.842;2023-05-23T07:06:19;25.90;;;15.18;;
80541;SDS011;69870;51.460;8.842;2023-05-23T07:08:46;31.17;;;16.75;;
80541;SDS011;69870;51.460;8.842;2023-05-23T07:11:15;24.73;;;16.00;;
80541;SDS011;69870;51.460;8.842;2023-05-23T07:13:46;32.08;;;16.42;;
80541;SDS011;69870;51.460;8.842;2023-05-23T07:16:20;25.88;;;16.80;;
80541;SDS011;69870;51.460;8.842;2023-05-23T07:19:01;20.30;;;13.40;;
80541;SDS011;69870;51.460;8.842;2023-05-23T07:21:30;19.60;;;13.18;;
80541;SDS011;69870;51.460;8.842;2023-05-23T07:23:57;23.35;;;14.90;;
80541;SDS011;69870;51.460;8.842;2023-05-23T07:26:25;23.40;;;15.18;;
80541;SDS011;69870;51.460;8.842;2023-05-23T07:28:54;28.13;;;15.25;;
80541;SDS011;69870;51.460;8.842;2023-05-23T07:31:21;18.33;;;11.82;;
80541;SDS011;69870;51.460;8.842;2023-05-23T07:33:50;19.98;;;13.20;;
80541;SDS011;69870;51.460;8.842;2023-05-23T07:36:23;16.63;;;11.52;;
80541;SDS011;69870;51.460;8.842;2023-05-23T07:38:50;16.63;;;11.55;;
80541;SDS011;69870;51.460;8.842;2023-05-23T07:41:17;16.42;;;11.35;;
80541;SDS011;69870;51.460;8.842;2023-05-23T07:43:45;18.30;;;11.93;;
80541;SDS011;69870;51.460;8.842;2023-05-23T07:46:12;14.80;;;10.57;;
80541;SDS011;69870;51.460;8.842;2023-05-23T07:48:38;17.08;;;9.70;;
80541;SDS011;69870;51.460;8.842;2023-05-23T07:51:05;15.93;;;11.15;;
80541;SDS011;69870;51.460;8.842;2023-05-23T07:53:32;21.98;;;12.68;;
80541;SDS011;69870;51.460;8.842;2023-05-23T07:56:02;22.25;;;14.30;;
80541;SDS011;69870;51.460;8.842;2023-05-23T07:58:33;22.17;;;14.02;;
80541;SDS011;69870;51.460;8.842;2023-05-23T08:01:01;23.10;;;14.20;;
80541;SDS011;69870;51.460;8.842;2023-05-23T08:04:06;33.00;;;17.55;;
80541;SDS011;69870;51.460;8.842;2023-05-23T08:06:41;27.17;;;17.55;;
80541;SDS011;69870;51.460;8.842;2023-05-23T08:09:12;29.77;;;16.88;;
80541;SDS011;69870;51.460;8.842;2023-05-23T08:11:44;28.33;;;16.27;;
80541;SDS011;69870;51.460;8.842;2023-05-23T08:14:11;24.20;;;15.15;;
80541;SDS011;69870;51.460;8.842;2023-05-23T08:16:39;23.50;;;14.50;;
80541;SDS011;69870;51.460;8.842;2023-05-23T08:19:11;18.63;;;11.82;;
80541;SDS011;69870;51.460;8.842;2023-05-23T08:21:37;14.95;;;10.18;;
80541;SDS011;69870;51.460;8.842;2023-05-23T08:24:04;17.48;;;10.68;;
80541;SDS011;69870;51.460;8.842;2023-05-23T08:26:31;21.48;;;10.77;;
80541;SDS011;69870;51.460;8.842;2023-05-23T08:29:02;22.20;;;12.23;;
80541;SDS011;69870;51.460;8.842;2023-05-23T08:31:29;17.40;;;11.70;;
80541;SDS011;69870;51.460;8.842;2023-05-23T08:33:59;22.85;;;12.68;;
80541;SDS011;69870;51.460;8.842;2023-05-23T08:36:27;14.77;;;11.50;;
80541;SDS011;69870;51.460;8.842;2023-05-23T08:38:54;14.68;;;9.93;;
80541;SDS011;69870;51.460;8.842;2023-05-23T08:41:28;26.40;;;12.48;;
80541;SDS011;69870;51.460;8.842;2023-05-23T08:44:01;27.23;;;11.13;;
80541;SDS011;69870;51.460;8.842;2023-05-23T08:46:32;16.42;;;10.90;;
80541;SDS011;69870;51.460;8.842;2023-05-23T08:49:03;15.43;;;10.52;;
80541;SDS011;69870;51.460;8.842;2023-05-23T08:51:31;16.75;;;9.40;;
80541;SDS011;69870;51.460;8.842;2023-05-23T08:54:04;9.82;;;8.20;;
80541;SDS011;69870;51.460;8.842;2023-05-23T08:56:34;10.98;;;7.47;;
80541;SDS011;69870;51.460;8.842;2023-05-23T08:59:01;18.38;;;9.77;;
80541;SDS011;69870;51.460;8.842;2023-05-23T09:01:29;19.20;;;8.55;;
80541;SDS011;69870;51.460;8.842;2023-05-23T09:03:59;14.45;;;8.40;;
80541;SDS011;69870;51.460;8.842;2023-05-23T09:06:56;13.65;;;8.02;;
80541;SDS011;69870;51.460;8.842;2023-05-23T09:09:24;18.67;;;9.05;;
80541;SDS011;69870;51.460;8.842;2023-05-23T09:11:51;11.52;;;8.20;;
80541;SDS011;69870;51.460;8.842;2023-05-23T09:14:18;16.75;;;8.65;;
80541;SDS011;69870;51.460;8.842;2023-05-23T09:16:47;13.02;;;8.68;;
80541;SDS011;69870;51.460;8.842;2023-05-23T09:19:17;13.25;;;7.55;;
80541;SDS011;69870;51.460;8.842;2023-05-23T09:21:57;12.10;;;6.45;;
80541;SDS011;69870;51.460;8.842;2023-05-23T09:24:33;5.15;;;4.22;;
80541;SDS011;69870;51.460;8.842;2023-05-23T09:27:01;7.72;;;3.70;;
80541;SDS011;69870;51.460;8.842;2023-05-23T09:29:30;10.77;;;4.40;;
80541;SDS011;69870;51.460;8.842;2023-05-23T09:31:58;10.50;;;3.65;;
80541;SDS011;69870;51.460;8.842;2023-05-23T09:34:25;5.68;;;3.97;;
80541;SDS011;69870;51.460;8.842;2023-05-23T09:36:53;6.13;;;3.20;;
80541;SDS011;69870;51.460;8.842;2023-05-23T09:39:22;5.55;;;3.40;;
80541;SDS011;69870;51.460;8.842;2023-05-23T09:41:49;5.60;;;3.35;;
80541;SDS011;69870;51.460;8.842;2023-05-23T09:44:16;4.45;;;3.58;;
80541;SDS011;69870;51.460;8.842;2023-05-23T09:46:49;4.75;;;3.75;;
80541;SDS011;69870;51.460;8.842;2023-05-23T09:49:18;7.80;;;4.75;;
80541;SDS011;69870;51.460;8.842;2023-05-23T09:51:56;5.72;;;3.95;;
80541;SDS011;69870;51.460;8.842;2023-05-23T09:56:51;19.52;;;6.03;;
80541;SDS011;69870;51.460;8.842;2023-05-23T09:59:21;8.90;;;5.68;;
80541;SDS011;69870;51.460;8.842;2023-05-23T10:01:50;14.55;;;5.97;;
80541;SDS011;69870;51.460;8.842;2023-05-23T10:04:18;13.02;;;7.47;;
80541;SDS011;69870;51.460;8.842;2023-05-23T10:06:48;12.70;;;7.05;;
80541;SDS011;69870;51.460;8.842;2023-05-23T10:09:18;13.88;;;6.60;;
80541;SDS011;69870;51.460;8.842;2023-05-23T10:14:53;17.75;;;8.82;;
80541;SDS011;69870;51.460;8.842;2023-05-23T10:17:25;21.23;;;10.15;;
80541;SDS011;69870;51.460;8.842;2023-05-23T10:19:59;20.08;;;11.45;;
80541;SDS011;69870;51.460;8.842;2023-05-23T10:22:32;18.77;;;10.18;;
80541;SDS011;69870;51.460;8.842;2023-05-23T10:25:00;15.13;;;10.00;;
80541;SDS011;69870;51.460;8.842;2023-05-23T10:27:28;15.25;;;10.02;;
80541;SDS011;69870;51.460;8.842;2023-05-23T10:29:57;23.92;;;11.48;;
80541;SDS011;69870;51.460;8.842;2023-05-23T10:32:24;15.07;;;10.23;;
80541;SDS011;69870;51.460;8.842;2023-05-23T10:34:53;20.88;;;9.95;;
80541;SDS011;69870;51.460;8.842;2023-05-23T10:37:26;14.25;;;9.30;;
80541;SDS011;69870;51.460;8.842;2023-05-23T10:39:58;16.42;;;9.18;;
80541;SDS011;69870;51.460;8.842;2023-05-23T10:42:32;14.10;;;9.50;;
80541;SDS011;69870;51.460;8.842;2023-05-23T10:45:14;17.15;;;10.10;;
80541;SDS011;69870;51.460;8.842;2023-05-23T10:47:45;13.52;;;8.95;;
80541;SDS011;69870;51.460;8.842;2023-05-23T10:50:12;15.68;;;9.43;;
80541;SDS011;69870;51.460;8.842;2023-05-23T10:52:40;14.48;;;9.88;;
80541;SDS011;69870;51.460;8.842;2023-05-23T10:55:11;17.45;;;9.93;;
80541;SDS011;69870;51.460;8.842;2023-05-23T10:57:39;18.25;;;10.27;;
80541;SDS011;69870;51.460;8.842;2023-05-23T11:00:11;14.80;;;9.30;;
80541;SDS011;69870;51.460;8.842;2023-05-23T11:02:52;19.30;;;10.55;;
80541;SDS011;69870;51.460;8.842;2023-05-23T11:05:20;13.70;;;9.43;;
80541;SDS011;69870;51.460;8.842;2023-05-23T11:08:08;13.85;;;8.52;;
80541;SDS011;69870;51.460;8.842;2023-05-23T11:10:50;13.93;;;8.95;;
80541;SDS011;69870;51.460;8.842;2023-05-23T11:13:18;21.23;;;11.43;;
80541;SDS011;69870;51.460;8.842;2023-05-23T11:15:47;17.60;;;9.93;;
80541;SDS011;69870;51.460;8.842;2023-05-23T11:18:22;17.23;;;10.63;;
80541;SDS011;69870;51.460;8.842;2023-05-23T11:20:50;23.52;;;13.02;;
80541;SDS011;69870;51.460;8.842;2023-05-23T11:23:18;18.30;;;11.68;;
80541;SDS011;69870;51.460;8.842;2023-05-23T11:25:47;25.80;;;13.73;;
80541;SDS011;69870;51.460;8.842;2023-05-23T11:28:15;26.83;;;14.77;;
80541;SDS011;69870;51.460;8.842;2023-05-23T11:30:42;26.13;;;12.52;;
80541;SDS011;69870;51.460;8.842;2023-05-23T11:33:11;27.10;;;14.52;;
80541;SDS011;69870;51.460;8.842;2023-05-23T11:35:39;29.77;;;14.20;;
80541;SDS011;69870;51.460;8.842;2023-05-23T11:38:06;30.75;;;15.40;;
80541;SDS011;69870;51.460;8.842;2023-05-23T11:40:33;25.70;;;13.90;;
80541;SDS011;69870;51.460;8.842;2023-05-23T11:43:01;31.20;;;15.07;;
80541;SDS011;69870;51.460;8.842;2023-05-23T11:45:29;22.25;;;13.73;;
80541;SDS011;69870;51.460;8.842;2023-05-23T11:47:57;22.45;;;12.07;;
80541;SDS011;69870;51.460;8.842;2023-05-23T11:50:25;17.92;;;11.82;;
80541;SDS011;69870;51.460;8.842;2023-05-23T11:52:53;27.25;;;12.98;;
80541;SDS011;69870;51.460;8.842;2023-05-23T11:55:20;18.25;;;10.45;;
80541;SDS011;69870;51.460;8.842;2023-05-23T11:57:47;23.83;;;12.13;;
80541;SDS011;69870;51.460;8.842;2023-05-23T12:00:14;26.15;;;13.32;;
80541;SDS011;69870;51.460;8.842;2023-05-23T12:02:42;23.80;;;13.80;;
80541;SDS011;69870;51.460;8.842;2023-05-23T12:05:10;29.80;;;14.32;;
80541;SDS011;69870;51.460;8.842;2023-05-23T12:07:40;29.88;;;16.83;;
80541;SDS011;69870;51.460;8.842;2023-05-23T12:10:07;27.63;;;12.85;;
80541;SDS011;69870;51.460;8.842;2023-05-23T12:12:35;29.70;;;15.25;;
80541;SDS011;69870;51.460;8.842;2023-05-23T12:15:01;24.23;;;13.65;;
80541;SDS011;69870;51.460;8.842;2023-05-23T12:17:29;30.63;;;14.40;;
80541;SDS011;69870;51.460;8.842;2023-05-23T12:19:55;23.52;;;13.20;;
80541;SDS011;69870;51.460;8.842;2023-05-23T12:22:22;22.27;;;12.63;;
80541;SDS011;69870;51.460;8.842;2023-05-23T12:24:53;24.48;;;13.35;;
80541;SDS011;69870;51.460;8.842;2023-05-23T12:27:25;17.95;;;10.30;;
80541;SDS011;69870;51.460;8.842;2023-05-23T12:30:03;24.40;;;11.85;;
80541;SDS011;69870;51.460;8.842;2023-05-23T12:32:31;28.73;;;12.38;;
80541;SDS011;69870;51.460;8.842;2023-05-23T12:34:58;23.73;;;11.63;;
80541;SDS011;69870;51.460;8.842;2023-05-23T12:37:24;25.45;;;13.10;;
80541;SDS011;69870;51.460;8.842;2023-05-23T12:39:52;32.03;;;11.30;;
80541;SDS011;69870;51.460;8.842;2023-05-23T12:42:19;35.20;;;12.10;;
80541;SDS011;69870;51.460;8.842;2023-05-23T12:44:49;21.23;;;11.73;;
80541;SDS011;69870;51.460;8.842;2023-05-23T12:47:17;29.15;;;12.45;;
80541;SDS011;69870;51.460;8.842;2023-05-23T12:49:43;26.08;;;11.75;;
80541;SDS011;69870;51.460;8.842;2023-05-23T12:52:11;25.65;;;12.05;;
80541;SDS011;69870;51.460;8.842;2023-05-23T12:54:37;28.73;;;11.50;;
80541;SDS011;69870;51.460;8.842;2023-05-23T12:57:05;24.55;;;12.30;;
80541;SDS011;69870;51.460;8.842;2023-05-23T12:59:32;26.75;;;11.00;;
80541;SDS011;69870;51.460;8.842;2023-05-23T13:01:58;30.63;;;11.75;;
80541;SDS011;69870;51.460;8.842;2023-05-23T13:04:25;28.48;;;11.75;;
80541;SDS011;69870;51.460;8.842;2023-05-23T13:06:52;32.85;;;11.80;;
80541;SDS011;69870;51.460;8.842;2023-05-23T13:09:18;32.85;;;12.68;;
80541;SDS011;69870;51.460;8.842;2023-05-23T13:11:45;33.83;;;12.75;;
80541;SDS011;69870;51.460;8.842;2023-05-23T13:14:13;30.38;;;11.15;;
80541;SDS011;69870;51.460;8.842;2023-05-23T13:16:40;31.95;;;10.93;;
80541;SDS011;69870;51.460;8.842;2023-05-23T13:19:07;25.77;;;11.93;;
80541;SDS011;69870;51.460;8.842;2023-05-23T13:21:33;32.67;;;11.13;;
80541;SDS011;69870;51.460;8.842;2023-05-23T13:24:00;35.70;;;12.30;;
80541;SDS011;69870;51.460;8.842;2023-05-23T13:26:26;34.22;;;8.85;;
80541;SDS011;69870;51.460;8.842;2023-05-23T13:28:53;35.08;;;9.73;;
80541;SDS011;69870;51.460;8.842;2023-05-23T13:31:21;26.33;;;7.85;;
80541;SDS011;69870;51.460;8.842;2023-05-23T13:33:48;19.88;;;8.40;;
80541;SDS011;69870;51.460;8.842;2023-05-23T13:36:15;25.30;;;7.82;;
80541;SDS011;69870;51.460;8.842;2023-05-23T13:38:41;26.27;;;6.90;;
80541;SDS011;69870;51.460;8.842;2023-05-23T13:41:08;26.33;;;7.15;;
80541;SDS011;69870;51.460;8.842;2023-05-23T13:43:35;25.52;;;6.75;;
80541;SDS011;69870;51.460;8.842;2023-05-23T13:46:01;24.70;;;7.78;;
80541;SDS011;69870;51.460;8.842;2023-05-23T13:48:29;22.08;;;7.35;;
80541;SDS011;69870;51.460;8.842;2023-05-23T13:50:56;26.33;;;8.43;;
80541;SDS011;69870;51.460;8.842;2023-05-23T13:53:23;31.52;;;8.05;;
80541;SDS011;69870;51.460;8.842;2023-05-23T13:55:50;24.17;;;8.70;;
80541;SDS011;69870;51.460;8.842;2023-05-23T13:58:16;21.42;;;6.50;;
80541;SDS011;69870;51.460;8.842;2023-05-23T14:00:43;21.70;;;6.40;;
80541;SDS011;69870;51.460;8.842;2023-05-23T14:03:10;28.70;;;6.28;;
80541;SDS011;69870;51.460;8.842;2023-05-23T14:05:38;30.08;;;6.82;;
80541;SDS011;69870;51.460;8.842;2023-05-23T14:08:04;20.05;;;5.50;;
80541;SDS011;69870;51.460;8.842;2023-05-23T14:10:31;27.20;;;6.53;;
80541;SDS011;69870;51.460;8.842;2023-05-23T14:12:58;23.77;;;6.55;;
80541;SDS011;69870;51.460;8.842;2023-05-23T14:15:25;21.70;;;5.88;;
80541;SDS011;69870;51.460;8.842;2023-05-23T14:17:52;24.08;;;6.68;;
80541;SDS011;69870;51.460;8.842;2023-05-23T14:20:20;23.23;;;6.35;;
80541;SDS011;69870;51.460;8.842;2023-05-23T14:22:48;25.33;;;6.53;;
80541;SDS011;69870;51.460;8.842;2023-05-23T14:25:15;19.92;;;6.78;;
80541;SDS011;69870;51.460;8.842;2023-05-23T14:27:41;25.27;;;5.85;;
80541;SDS011;69870;51.460;8.842;2023-05-23T14:30:09;24.38;;;7.05;;
80541;SDS011;69870;51.460;8.842;2023-05-23T14:32:36;22.80;;;5.85;;
80541;SDS011;69870;51.460;8.842;2023-05-23T14:35:03;29.55;;;6.80;;
80541;SDS011;69870;51.460;8.842;2023-05-23T14:37:31;27.08;;;6.25;;
80541;SDS011;69870;51.460;8.842;2023-05-23T14:39:59;27.77;;;7.50;;
80541;SDS011;69870;51.460;8.842;2023-05-23T14:42:25;32.17;;;6.88;;